createdAt,value
2023-05-22T00:01:04.938Z,98470.41
2023-05-22T00:03:36.575Z,98468.78
2023-05-22T00:06:06.263Z,98459.91
2023-05-22T00:08:34.435Z,98463.16
2023-05-22T00:11:03.686Z,98460.16
2023-05-22T00:13:32.031Z,98454.94
2023-05-22T00:16:00.071Z,98446.34
2023-05-22T00:18:28.249Z,98452.72
2023-05-22T00:20:58.225Z,98448.44
2023-05-22T00:23:27.975Z,98456.56
2023-05-22T00:25:56.044Z,98452.41
2023-05-22T00:28:24.078Z,98451.63
2023-05-22T00:30:53.621Z,98456.69
2023-05-22T00:33:21.658Z,98455.81
2023-05-22T00:35:49.798Z,98454.94
2023-05-22T00:38:34.398Z,98456.16
2023-05-22T00:41:03.775Z,98452.59
2023-05-22T00:43:32.058Z,98452.59
2023-05-22T00:46:00.190Z,98453.13
2023-05-22T00:48:28.297Z,98451.63
2023-05-22T00:50:58.295Z,98456.94
2023-05-22T00:53:28.238Z,98445.50
2023-05-22T00:55:59.839Z,98447.38
2023-05-22T00:58:28.564Z,98439.28
2023-05-22T01:00:57.530Z,98447.03
2023-05-22T01:03:27.534Z,98448.13
2023-05-22T01:05:56.503Z,98442.03
2023-05-22T01:08:24.765Z,98436.09
2023-05-22T01:11:03.213Z,98428.63
2023-05-22T01:13:41.229Z,98436.81
2023-05-22T01:16:14.451Z,98427.88
2023-05-22T01:18:47.996Z,98425.81
2023-05-22T01:21:23.161Z,98429.66
2023-05-22T01:24:16.298Z,98430.53
2023-05-22T01:27:07.819Z,98422.41
2023-05-22T01:29:46.322Z,98432.34
2023-05-22T01:32:21.930Z,98421.63
2023-05-22T01:34:55.668Z,98427.44
2023-05-22T01:37:25.508Z,98429.81
2023-05-22T01:39:54.564Z,98434.59
2023-05-22T01:42:23.115Z,98430.91
2023-05-22T01:44:51.687Z,98427.22
2023-05-22T01:47:22.293Z,98428.22
2023-05-22T01:49:52.032Z,98429.56
2023-05-22T01:52:26.740Z,98425.25
2023-05-22T01:55:00.252Z,98417.78
2023-05-22T01:57:35.177Z,98420.28
2023-05-22T02:00:10.038Z,98420.25
2023-05-22T02:02:51.983Z,98424.53
2023-05-22T02:05:23.749Z,98424.06
2023-05-22T02:07:54.033Z,98432.41
2023-05-22T02:10:23.264Z,98430.44
2023-05-22T02:12:51.344Z,98426.34
2023-05-22T02:15:19.944Z,98435.94
2023-05-22T02:17:53.341Z,98431.94
2023-05-22T02:20:21.834Z,98429.94
2023-05-22T02:22:50.031Z,98430.94
2023-05-22T02:25:18.321Z,98435.47
2023-05-22T02:27:49.661Z,98429.41
2023-05-22T02:30:17.794Z,98432.72
2023-05-22T02:32:51.079Z,98432.47
2023-05-22T02:35:19.152Z,98429.19
2023-05-22T02:37:47.206Z,98423.63
2023-05-22T02:40:15.802Z,98424.06
2023-05-22T02:42:43.920Z,98426.53
2023-05-22T02:45:12.983Z,98424.47
2023-05-22T02:47:42.551Z,98424.75
2023-05-22T02:50:13.133Z,98419.47
2023-05-22T02:52:41.453Z,98411.94
2023-05-22T02:55:10.639Z,98413.41
2023-05-22T02:57:38.734Z,98419.94
2023-05-22T03:00:10.730Z,98416.25
2023-05-22T03:02:39.036Z,98417.28
2023-05-22T03:05:08.184Z,98421.22
2023-05-22T03:07:37.762Z,98413.47
2023-05-22T03:10:06.991Z,98418.78
2023-05-22T03:12:35.164Z,98410.66
2023-05-22T03:15:03.329Z,98415.44
2023-05-22T03:17:32.400Z,98418.03
2023-05-22T03:20:00.524Z,98414.66
2023-05-22T03:22:28.676Z,98418.25
2023-05-22T03:24:58.173Z,98411.19
2023-05-22T03:27:26.339Z,98418.25
2023-05-22T03:29:54.540Z,98418.81
2023-05-22T03:32:23.961Z,98417.97
2023-05-22T03:34:52.332Z,98423.59
2023-05-22T03:37:20.703Z,98420.31
2023-05-22T03:39:48.883Z,98416.25
2023-05-22T03:42:28.947Z,98418.22
2023-05-22T03:44:58.287Z,98418.72
2023-05-22T03:47:27.202Z,98414.19
2023-05-22T03:49:55.306Z,98411.81
2023-05-22T03:52:24.037Z,98419.78
2023-05-22T03:54:53.575Z,98409.34
2023-05-22T03:57:21.776Z,98405.22
2023-05-22T03:59:51.389Z,98409.47
2023-05-22T04:02:20.391Z,98405.72
2023-05-22T04:04:48.577Z,98408.38
2023-05-22T04:07:18.554Z,98404.19
2023-05-22T04:09:46.736Z,98416.22
2023-05-22T04:12:14.786Z,98413.38
2023-05-22T04:14:43.999Z,98417.09
2023-05-22T04:17:13.453Z,98416.25
2023-05-22T04:19:41.510Z,98422.00
2023-05-22T04:22:09.513Z,98424.19
2023-05-22T04:24:39.886Z,98424.34
2023-05-22T04:27:08.048Z,98420.94
2023-05-22T04:29:36.439Z,98420.84
2023-05-22T04:32:06.393Z,98417.34
2023-05-22T04:34:37.614Z,98422.88
2023-05-22T04:37:06.378Z,98414.75
2023-05-22T04:39:34.574Z,98416.25
2023-05-22T04:42:05.990Z,98414.72
2023-05-22T04:44:42.968Z,98420.97
2023-05-22T04:47:14.653Z,98414.44
2023-05-22T04:49:45.712Z,98405.53
2023-05-22T04:52:14.159Z,98408.91
2023-05-22T04:54:44.492Z,98409.16
2023-05-22T04:57:13.687Z,98411.34
2023-05-22T04:59:42.185Z,98418.78
2023-05-22T05:02:10.586Z,98408.53
2023-05-22T05:04:39.082Z,98420.91
2023-05-22T05:07:09.085Z,98409.50
2023-05-22T05:09:37.314Z,98410.19
2023-05-22T05:12:05.936Z,98410.34
2023-05-22T05:14:34.063Z,98405.78
2023-05-22T05:17:02.596Z,98410.03
2023-05-22T05:19:30.916Z,98412.44
2023-05-22T05:21:59.952Z,98411.81
2023-05-22T05:24:29.812Z,98414.59
2023-05-22T05:26:58.012Z,98418.97
2023-05-22T05:29:26.544Z,98423.41
2023-05-22T05:32:00.186Z,98419.13
2023-05-22T05:34:41.027Z,98415.94
2023-05-22T05:37:21.446Z,98412.31
2023-05-22T05:39:51.861Z,98422.13
2023-05-22T05:42:21.022Z,98415.25
2023-05-22T05:44:50.153Z,98416.84
2023-05-22T05:47:18.806Z,98413.84
2023-05-22T05:49:46.890Z,98415.25
2023-05-22T05:52:16.617Z,98412.31
2023-05-22T05:54:47.535Z,98410.44
2023-05-22T05:57:22.002Z,98409.81
2023-05-22T05:59:51.947Z,98401.44
2023-05-22T06:02:39.316Z,98410.91
2023-05-22T06:05:13.681Z,98392.97
2023-05-22T06:07:42.346Z,98403.44
2023-05-22T06:10:13.085Z,98403.75
2023-05-22T06:12:52.562Z,98398.72
2023-05-22T06:15:21.293Z,98395.06
2023-05-22T06:17:49.375Z,98399.56
2023-05-22T06:20:17.624Z,98391.91
2023-05-22T06:22:45.768Z,98402.47
2023-05-22T06:25:13.929Z,98402.56
2023-05-22T06:27:42.690Z,98400.72
2023-05-22T06:30:14.814Z,98400.38
2023-05-22T06:32:43.945Z,98405.97
2023-05-22T06:35:12.502Z,98400.03
2023-05-22T06:37:43.183Z,98407.97
2023-05-22T06:40:12.410Z,98401.44
2023-05-22T06:42:50.792Z,98412.25
2023-05-22T06:45:29.128Z,98407.88
2023-05-22T06:48:17.514Z,98398.44
2023-05-22T06:51:11.708Z,98405.00
2023-05-22T06:53:41.973Z,98396.78
2023-05-22T06:56:15.425Z,98400.50
2023-05-22T06:59:06.737Z,98405.19
2023-05-22T07:01:51.547Z,98404.38
2023-05-22T07:04:38.894Z,98405.81
2023-05-22T07:07:14.426Z,98403.78
2023-05-22T07:09:42.533Z,98406.50
2023-05-22T07:12:11.224Z,98405.56
2023-05-22T07:14:39.435Z,98404.81
2023-05-22T07:17:09.025Z,98410.53
2023-05-22T07:19:42.470Z,98398.53
2023-05-22T07:22:10.722Z,98403.59
2023-05-22T07:24:40.790Z,98397.56
2023-05-22T07:27:09.379Z,98396.53
2023-05-22T07:29:38.081Z,98398.09
2023-05-22T07:32:09.401Z,98399.28
2023-05-22T07:34:37.978Z,98396.50
2023-05-22T07:37:09.844Z,98403.38
2023-05-22T07:39:38.194Z,98398.31
2023-05-22T07:42:07.837Z,98401.53
2023-05-22T07:44:42.245Z,98401.59
2023-05-22T07:47:11.839Z,98401.47
2023-05-22T07:49:42.343Z,98401.69
2023-05-22T07:52:12.871Z,98398.16
2023-05-22T07:54:42.419Z,98402.38
2023-05-22T07:57:12.727Z,98407.53
2023-05-22T07:59:44.142Z,98404.72
2023-05-22T08:02:14.442Z,98409.97
2023-05-22T08:04:42.727Z,98408.72
2023-05-22T08:07:11.528Z,98400.66
2023-05-22T08:09:40.071Z,98403.03
2023-05-22T08:12:09.253Z,98404.03
2023-05-22T08:14:37.854Z,98402.53
2023-05-22T08:17:06.447Z,98402.91
2023-05-22T08:19:36.346Z,98413.59
2023-05-22T08:22:04.590Z,98404.97
2023-05-22T08:24:32.615Z,98399.34
2023-05-22T08:27:00.766Z,98403.28
2023-05-22T08:29:30.017Z,98408.94
2023-05-22T08:31:58.435Z,98411.16
2023-05-22T08:34:27.047Z,98401.78
2023-05-22T08:36:56.487Z,98408.72
2023-05-22T08:39:24.566Z,98407.63
2023-05-22T08:41:53.027Z,98421.84
2023-05-22T08:44:21.128Z,98415.88
2023-05-22T08:46:49.645Z,98417.00
2023-05-22T08:49:19.127Z,98410.81
2023-05-22T08:51:49.613Z,98405.91
2023-05-22T08:54:22.725Z,98410.38
2023-05-22T08:56:56.679Z,98404.63
2023-05-22T08:59:25.949Z,98406.63
2023-05-22T09:01:54.933Z,98400.78
2023-05-22T09:04:24.328Z,98406.94
2023-05-22T09:06:53.160Z,98397.03
2023-05-22T09:09:22.671Z,98398.22
2023-05-22T09:11:50.996Z,98389.19
2023-05-22T09:14:20.000Z,98391.75
2023-05-22T09:16:49.570Z,98390.41
2023-05-22T09:19:17.824Z,98390.41
2023-05-22T09:21:46.282Z,98387.59
2023-05-22T09:24:14.615Z,98386.72
2023-05-22T09:26:43.995Z,98383.19
2023-05-22T09:29:12.283Z,98371.91
2023-05-22T09:31:44.031Z,98375.88
2023-05-22T09:34:15.791Z,98381.75
2023-05-22T09:36:44.314Z,98373.06
2023-05-22T09:39:12.545Z,98367.44
2023-05-22T09:41:41.399Z,98376.78
2023-05-22T09:44:17.327Z,98370.41
2023-05-22T09:46:47.560Z,98372.88
2023-05-22T09:49:17.231Z,98370.31
2023-05-22T09:51:48.878Z,98372.97
2023-05-22T09:54:18.004Z,98366.53
2023-05-22T09:56:50.278Z,98368.69
2023-05-22T09:59:23.690Z,98366.41
2023-05-22T10:01:52.279Z,98366.84
2023-05-22T10:04:23.651Z,98356.94
2023-05-22T10:06:54.013Z,98357.72
2023-05-22T10:09:25.898Z,98356.22
2023-05-22T10:11:56.278Z,98357.75
2023-05-22T10:14:28.822Z,98357.78
2023-05-22T10:17:02.176Z,98357.47
2023-05-22T10:19:32.907Z,98347.75
2023-05-22T10:22:02.558Z,98345.56
2023-05-22T10:24:30.980Z,98348.53
2023-05-22T10:26:59.252Z,98345.00
2023-05-22T10:29:35.359Z,98341.16
2023-05-22T10:32:09.279Z,98336.88
2023-05-22T10:34:55.592Z,98345.97
2023-05-22T10:37:39.752Z,98337.63
2023-05-22T10:40:12.055Z,98339.50
2023-05-22T10:42:40.773Z,98338.78
2023-05-22T10:45:12.327Z,98338.06
2023-05-22T10:47:40.630Z,98347.47
2023-05-22T10:50:11.031Z,98342.81
2023-05-22T10:52:39.861Z,98339.06
2023-05-22T10:55:09.260Z,98330.28
2023-05-22T10:57:39.934Z,98325.66
2023-05-22T11:00:14.180Z,98313.97
2023-05-22T11:02:47.116Z,98308.75
2023-05-22T11:05:36.499Z,98313.84
2023-05-22T11:08:38.760Z,98316.66
2023-05-22T11:11:15.684Z,98299.84
2023-05-22T11:13:43.840Z,98305.19
2023-05-22T11:16:13.785Z,98306.25
2023-05-22T11:18:41.997Z,98297.84
2023-05-22T11:21:13.779Z,98290.69
2023-05-22T11:23:42.803Z,98293.56
2023-05-22T11:26:22.556Z,98297.59
2023-05-22T11:28:52.009Z,98291.09
2023-05-22T11:31:23.313Z,98283.38
2023-05-22T11:33:51.609Z,98286.13
2023-05-22T11:36:20.112Z,98286.56
2023-05-22T11:38:48.263Z,98288.50
2023-05-22T11:41:17.238Z,98289.00
2023-05-22T11:43:45.393Z,98290.56
2023-05-22T11:46:14.305Z,98294.13
2023-05-22T11:48:44.322Z,98294.94
2023-05-22T11:51:12.934Z,98292.88
2023-05-22T11:53:42.646Z,98274.97
2023-05-22T11:56:10.692Z,98291.31
2023-05-22T11:58:38.806Z,98287.38
2023-05-22T12:01:07.724Z,98292.06
2023-05-22T12:03:35.884Z,98295.03
2023-05-22T12:06:06.722Z,98283.91
2023-05-22T12:08:35.491Z,98289.72
2023-05-22T12:11:06.154Z,98288.59
2023-05-22T12:13:34.311Z,98284.97
2023-05-22T12:16:02.440Z,98278.44
2023-05-22T12:18:37.918Z,98293.00
2023-05-22T12:21:09.059Z,98291.97
2023-05-22T12:23:37.203Z,98287.72
2023-05-22T12:26:10.456Z,98288.84
2023-05-22T12:28:40.077Z,98290.53
2023-05-22T12:31:08.128Z,98279.94
2023-05-22T12:33:36.317Z,98281.06
2023-05-22T12:36:10.346Z,98271.41
2023-05-22T12:38:39.956Z,98275.19
2023-05-22T12:41:08.410Z,98266.16
2023-05-22T12:43:36.713Z,98262.25
2023-05-22T12:46:05.002Z,98257.25
2023-05-22T12:48:33.015Z,98259.03
2023-05-22T12:51:01.098Z,98248.16
2023-05-22T12:53:30.605Z,98250.91
2023-05-22T12:55:58.627Z,98246.09
2023-05-22T12:58:26.699Z,98235.09
2023-05-22T13:00:55.022Z,98236.63
2023-05-22T13:03:23.432Z,98233.38
2023-05-22T13:05:51.489Z,98237.91
2023-05-22T13:08:19.486Z,98235.00
2023-05-22T13:10:48.948Z,98246.44
2023-05-22T13:13:17.051Z,98235.53
2023-05-22T13:15:45.161Z,98236.97
2023-05-22T13:18:13.220Z,98232.34
2023-05-22T13:20:41.366Z,98231.78
2023-05-22T13:23:09.827Z,98231.50
2023-05-22T13:25:38.021Z,98226.13
2023-05-22T13:28:07.527Z,98219.75
2023-05-22T13:30:35.635Z,98229.28
2023-05-22T13:33:03.896Z,98226.75
2023-05-22T13:35:32.150Z,98217.03
2023-05-22T13:38:00.269Z,98209.88
2023-05-22T13:40:28.440Z,98225.72
2023-05-22T13:42:56.564Z,98215.34
2023-05-22T13:45:27.305Z,98214.31
2023-05-22T13:47:55.401Z,98210.88
2023-05-22T13:50:23.618Z,98197.44
2023-05-22T13:52:51.743Z,98211.50
2023-05-22T13:55:19.869Z,98195.94
2023-05-22T13:57:48.043Z,98198.28
2023-05-22T14:00:16.813Z,98194.78
2023-05-22T14:02:49.715Z,98196.78
2023-05-22T14:05:18.119Z,98198.66
2023-05-22T14:07:46.302Z,98200.34
2023-05-22T14:10:14.535Z,98198.25
2023-05-22T14:12:42.700Z,98197.28
2023-05-22T14:15:11.665Z,98194.88
2023-05-22T14:17:39.890Z,98196.09
2023-05-22T14:20:10.415Z,98197.84
2023-05-22T14:22:55.482Z,98191.28
2023-05-22T14:25:25.459Z,98189.47
2023-05-22T14:27:53.725Z,98185.34
2023-05-22T14:30:21.893Z,98181.31
2023-05-22T14:32:50.199Z,98182.50
2023-05-22T14:35:19.698Z,98178.44
2023-05-22T14:37:47.882Z,98184.28
2023-05-22T14:40:15.908Z,98167.88
2023-05-22T14:42:44.379Z,98169.13
2023-05-22T14:45:13.004Z,98168.25
2023-05-22T14:47:42.488Z,98162.91
2023-05-22T14:50:19.004Z,98163.88
2023-05-22T14:52:49.955Z,98162.38
2023-05-22T14:55:18.803Z,98171.66
2023-05-22T14:57:46.885Z,98167.19
2023-05-22T15:00:16.237Z,98166.19
2023-05-22T15:02:44.389Z,98159.59
2023-05-22T15:05:12.634Z,98169.44
2023-05-22T15:07:44.633Z,98165.63
2023-05-22T15:10:15.235Z,98154.75
2023-05-22T15:12:43.382Z,98163.50
2023-05-22T15:15:12.420Z,98143.03
2023-05-22T15:17:42.616Z,98144.03
2023-05-22T15:20:12.102Z,98148.13
2023-05-22T15:22:40.369Z,98146.16
2023-05-22T15:25:11.880Z,98135.78
2023-05-22T15:27:42.235Z,98144.56
2023-05-22T15:30:12.187Z,98141.72
2023-05-22T15:32:40.660Z,98131.56
2023-05-22T15:35:10.265Z,98138.75
2023-05-22T15:37:38.496Z,98140.84
2023-05-22T15:40:09.759Z,98139.59
2023-05-22T15:42:38.234Z,98136.84
2023-05-22T15:45:09.331Z,98138.00
2023-05-22T15:47:37.541Z,98137.34
2023-05-22T15:50:06.489Z,98133.63
2023-05-22T15:52:34.536Z,98134.13
2023-05-22T15:55:02.857Z,98129.59
2023-05-22T15:57:31.349Z,98130.31
2023-05-22T15:59:59.479Z,98133.41
2023-05-22T16:02:28.977Z,98126.53
2023-05-22T16:04:57.286Z,98129.81
2023-05-22T16:07:25.379Z,98125.22
2023-05-22T16:09:53.660Z,98112.03
2023-05-22T16:12:23.153Z,98122.03
2023-05-22T16:14:51.879Z,98117.22
2023-05-22T16:17:21.820Z,98128.34
2023-05-22T16:19:52.291Z,98121.50
2023-05-22T16:22:21.373Z,98120.38
2023-05-22T16:24:49.457Z,98119.22
2023-05-22T16:27:17.573Z,98111.97
2023-05-22T16:29:45.736Z,98116.63
2023-05-22T16:32:13.838Z,98115.00
2023-05-22T16:34:41.847Z,98113.25
2023-05-22T16:37:11.372Z,98116.09
2023-05-22T16:39:39.960Z,98114.25
2023-05-22T16:42:08.212Z,98112.91
2023-05-22T16:44:36.268Z,98119.38
2023-05-22T16:47:04.553Z,98127.72
2023-05-22T16:49:32.662Z,98116.56
2023-05-22T16:52:00.725Z,98120.88
2023-05-22T16:54:30.170Z,98118.09
2023-05-22T16:56:58.191Z,98125.69
2023-05-22T16:59:26.273Z,98115.63
2023-05-22T17:01:54.509Z,98112.81
2023-05-22T17:04:22.553Z,98115.31
2023-05-22T17:06:53.783Z,98116.09
2023-05-22T17:09:21.871Z,98118.44
2023-05-22T17:11:51.457Z,98122.66
2023-05-22T17:14:21.754Z,98115.47
2023-05-22T17:16:50.117Z,98124.09
2023-05-22T17:19:18.567Z,98127.53
2023-05-22T17:21:46.858Z,98124.53
2023-05-22T17:24:15.098Z,98119.88
2023-05-22T17:26:43.377Z,98124.19
2023-05-22T17:29:12.836Z,98122.84
2023-05-22T17:31:40.914Z,98127.16
2023-05-22T17:34:09.088Z,98130.59
2023-05-22T17:36:37.089Z,98127.91
2023-05-22T17:39:05.387Z,98130.41
2023-05-22T17:41:33.506Z,98130.94
2023-05-22T17:44:01.986Z,98128.88
2023-05-22T17:46:31.455Z,98126.09
2023-05-22T17:48:59.676Z,98124.03
2023-05-22T17:51:27.790Z,98126.94
2023-05-22T17:53:56.508Z,98121.78
2023-05-22T17:56:24.543Z,98120.91
2023-05-22T17:58:52.632Z,98118.72
2023-05-22T18:01:20.942Z,98117.41
2023-05-22T18:03:50.569Z,98116.84
2023-05-22T18:06:18.771Z,98110.19
2023-05-22T18:08:47.784Z,98119.56
2023-05-22T18:11:16.207Z,98116.06
2023-05-22T18:13:44.338Z,98113.56
2023-05-22T18:16:12.522Z,98110.19
2023-05-22T18:18:43.717Z,98114.38
2023-05-22T18:21:13.193Z,98111.84
2023-05-22T18:23:41.270Z,98109.16
2023-05-22T18:26:09.789Z,98106.97
2023-05-22T18:28:37.856Z,98106.91
2023-05-22T18:31:05.947Z,98098.53
2023-05-22T18:33:46.645Z,98092.66
2023-05-22T18:36:17.320Z,98099.13
2023-05-22T18:38:45.418Z,98104.78
2023-05-22T18:41:13.444Z,98106.75
2023-05-22T18:43:41.518Z,98115.19
2023-05-22T18:46:09.668Z,98102.66
2023-05-22T18:48:37.830Z,98107.94
2023-05-22T18:51:05.974Z,98103.44
2023-05-22T18:53:35.462Z,98102.19
2023-05-22T18:56:03.788Z,98100.84
2023-05-22T18:58:31.985Z,98098.81
2023-05-22T19:01:01.484Z,98097.69
2023-05-22T19:03:29.630Z,98093.94
2023-05-22T19:05:58.115Z,98096.97
2023-05-22T19:08:26.831Z,98095.50
2023-05-22T19:10:59.918Z,98096.06
2023-05-22T19:13:29.304Z,98101.81
2023-05-22T19:15:58.275Z,98094.91
2023-05-22T19:18:27.495Z,98101.63
2023-05-22T19:20:55.757Z,98116.06
2023-05-22T19:23:23.774Z,98100.88
2023-05-22T19:25:52.455Z,98101.06
2023-05-22T19:28:22.025Z,98107.81
2023-05-22T19:30:50.166Z,98118.47
2023-05-22T19:33:18.906Z,98108.94
2023-05-22T19:35:47.276Z,98110.19
2023-05-22T19:38:15.636Z,98111.34
2023-05-22T19:40:43.724Z,98111.91
2023-05-22T19:43:12.012Z,98108.53
2023-05-22T19:45:41.418Z,98106.63
2023-05-22T19:48:09.603Z,98107.38
2023-05-22T19:50:37.891Z,98108.47
2023-05-22T19:53:06.316Z,98103.91
2023-05-22T19:55:34.324Z,98107.13
2023-05-22T19:58:02.409Z,98102.81
2023-05-22T20:00:31.497Z,98100.75
2023-05-22T20:03:01.157Z,98111.34
2023-05-22T20:05:29.183Z,98105.72
2023-05-22T20:07:59.109Z,98103.72
2023-05-22T20:10:27.178Z,98094.03
2023-05-22T20:12:56.089Z,98097.72
2023-05-22T20:15:24.904Z,98100.38
2023-05-22T20:17:54.484Z,98096.09
2023-05-22T20:20:24.687Z,98103.06
2023-05-22T20:22:53.982Z,98101.94
2023-05-22T20:25:22.394Z,98095.41
2023-05-22T20:27:50.745Z,98094.50
2023-05-22T20:30:18.992Z,98092.47
2023-05-22T20:32:47.138Z,98093.34
2023-05-22T20:35:18.900Z,98082.13
2023-05-22T20:37:48.607Z,98083.44
2023-05-22T20:40:17.549Z,98096.00
2023-05-22T20:42:47.593Z,98084.38
2023-05-22T20:45:16.471Z,98084.56
2023-05-22T20:47:44.991Z,98087.81
2023-05-22T20:50:13.453Z,98085.97
2023-05-22T20:52:41.529Z,98090.97
2023-05-22T20:55:19.401Z,98093.22
2023-05-22T20:57:49.579Z,98095.00
2023-05-22T21:00:18.078Z,98090.16
2023-05-22T21:02:46.463Z,98084.72
2023-05-22T21:05:21.709Z,98090.06
2023-05-22T21:07:49.893Z,98085.00
2023-05-22T21:10:19.385Z,98085.72
2023-05-22T21:12:47.463Z,98085.28
2023-05-22T21:15:15.564Z,98087.91
2023-05-22T21:17:43.807Z,98086.53
2023-05-22T21:20:12.550Z,98080.72
2023-05-22T21:22:40.563Z,98080.34
2023-05-22T21:25:10.299Z,98079.16
2023-05-22T21:27:39.727Z,98080.19
2023-05-22T21:30:09.300Z,98080.19
2023-05-22T21:32:38.129Z,98078.28
2023-05-22T21:35:07.196Z,98079.91
2023-05-22T21:37:35.302Z,98077.78
2023-05-22T21:40:03.342Z,98084.47
2023-05-22T21:42:41.864Z,98080.84
2023-05-22T21:45:15.834Z,98075.16
2023-05-22T21:47:44.019Z,98082.59
2023-05-22T21:50:12.743Z,98084.66
2023-05-22T21:52:40.866Z,98083.28
2023-05-22T21:55:09.554Z,98081.13
2023-05-22T21:57:37.826Z,98074.03
2023-05-22T22:00:06.676Z,98075.88
2023-05-22T22:02:36.364Z,98079.69
2023-05-22T22:05:04.683Z,98082.47
2023-05-22T22:07:32.759Z,98079.25
2023-05-22T22:10:00.978Z,98076.69
2023-05-22T22:12:29.005Z,98077.78
2023-05-22T22:14:58.076Z,98079.81
2023-05-22T22:17:26.293Z,98080.69
2023-05-22T22:19:57.034Z,98088.88
2023-05-22T22:22:26.194Z,98091.22
2023-05-22T22:24:54.271Z,98073.59
2023-05-22T22:27:22.446Z,98072.75
2023-05-22T22:29:50.656Z,98073.06
2023-05-22T22:32:18.826Z,98070.50
2023-05-22T22:34:47.061Z,98075.66
2023-05-22T22:37:17.591Z,98071.66
2023-05-22T22:39:45.696Z,98075.00
2023-05-22T22:42:13.714Z,98068.03
2023-05-22T22:44:41.826Z,98067.78
2023-05-22T22:47:09.896Z,98063.28
2023-05-22T22:49:38.460Z,98065.56
2023-05-22T22:52:07.660Z,98057.06
2023-05-22T22:54:37.238Z,98059.97
2023-05-22T22:57:05.726Z,98058.56
2023-05-22T22:59:35.573Z,98062.75
2023-05-22T23:02:03.675Z,98054.06
2023-05-22T23:04:31.778Z,98058.25
2023-05-22T23:06:59.848Z,98061.44
2023-05-22T23:09:27.974Z,98053.81
2023-05-22T23:11:57.389Z,98056.41
2023-05-22T23:14:28.077Z,98048.66
2023-05-22T23:16:56.180Z,98052.44
2023-05-22T23:19:24.377Z,98041.69
2023-05-22T23:21:53.691Z,98041.16
2023-05-22T23:24:21.795Z,98040.88
2023-05-22T23:26:49.764Z,98041.78
2023-05-22T23:29:19.153Z,98040.28
2023-05-22T23:31:47.587Z,98028.97
2023-05-22T23:34:15.648Z,98031.75
2023-05-22T23:36:43.707Z,98036.31
2023-05-22T23:39:11.866Z,98030.75
2023-05-22T23:41:39.938Z,98027.22
2023-05-22T23:44:07.943Z,98030.47
2023-05-22T23:46:39.722Z,98025.75
2023-05-22T23:49:08.374Z,98018.00
2023-05-22T23:51:36.675Z,98009.22
2023-05-22T23:54:04.803Z,98021.00
2023-05-22T23:56:32.870Z,98013.25
2023-05-22T23:59:01.035Z,98012.41
